• Join FlightAware (Why Join?)
  • Login
  • US Flag 
05:12AM EDT


 

Airport Tracker/Info


-or-


 

Live Flight TrackerFlight Track Log ✈ RPA3159 ✈ 15-May-2013 ✈ KBTV - KPHL

Flight Track Log - Related Links

Times and Time Zones

All times are in EDT time to prevent confusion due to time zone crossing. See the RPA3159 flight status page for this flight to view local times or setup timezone preferences in your user account.

Time Position Orientation Groundspeed Altitude Reporting Facility
EDT Latitude Longitude Course Direction KTS MPH feet Rate Location/Type
11:38AM 44.2058 -73.2500 180° South  Level FlightAware Approximate
11:38AM 44.3047 -73.1828 198° South 254 292 7,100  Level Boston Center
11:39AM 44.1180 -73.2808 195° South  Level FlightAware Approximate
11:39AM 44.2400 -73.2167 201° Southwest 274 315 9,600  Level Boston Center
11:40AM 44.0302 -73.3122 194° South  Level FlightAware Approximate
11:40AM 44.1708 -73.2767 212° Southwest 289 333 10,900  Level Boston Center
11:41AM 43.9316 -73.3450 193° South  Level FlightAware Approximate
11:41AM 44.0911 -73.3478 213° Southwest 326 375 12,800  Level Boston Center
11:42AM 43.8335 -73.3813 195° South  Level FlightAware Approximate
11:42AM 44.0072 -73.4186 211° Southwest 353 406 14,600  Level Boston Center
11:43AM 43.7356 -73.4180 195° South  Level FlightAware Approximate
11:43AM 43.9189 -73.4950 212° Southwest 369 425 16,500  Level Boston Center
11:44AM 43.6379 -73.4555 198° South  Level FlightAware Approximate
11:44AM 43.8308 -73.5711 212° Southwest 377 434 18,000  Level Boston Center
11:45AM 43.7425 -73.6469 212° Southwest 377 434 19,600 1,320 Climbing Boston Center
11:46AM 43.6519 -73.7228 211° Southwest 382 440 20,700 960 Climbing Boston Center
11:47AM 43.5594 -73.8039 212° Southwest 387 445 21,600 600 Climbing Boston Center
11:48AM 43.4644 -73.8847 212° Southwest 392 451 22,000 180 Climbing Boston Center
11:49AM 43.3697 -73.9653 212° Southwest 397 457 22,000  Level Boston Center
11:50AM 43.2747 -74.0483 212° Southwest 402 463 22,000  Level Boston Center
11:51AM 43.1778 -74.1286 211° Southwest 402 463 22,000  Level Boston Center
11:52AM 43.0850 -74.2083 212° Southwest 407 468 22,000  Level Boston Center
11:53AM 42.9897 -74.2881 211° Southwest 407 468 22,000  Level Boston Center
11:54AM 42.8925 -74.3700 212° Southwest 407 468 22,000  Level Boston Center
11:55AM 42.7953 -74.4519 212° Southwest 407 468 22,000  Level Boston Center
11:56AM 42.7106 -74.5225 211° Southwest 391 450 22,000  Level Boston Center
11:57AM 42.6197 -74.5958 211° Southwest 380 437 22,000  Level Boston Center
11:58AM 42.5328 -74.6689 212° Southwest 380 437 22,000 -120 Level Boston Center
12:00PM 42.3625 -74.8092 211° Southwest 379 436 21,800 -900 Descending New York Center
12:01PM 42.2747 -74.8794 211° Southwest 379 436 19,400 -1,380 Descending New York Center
12:02PM 42.1872 -74.9467 210° Southwest 368 423 19,000 -240 Descending New York Center
12:03PM 42.0947 -75.0303 214° Southwest 368 423 19,000  Level New York Center
12:04PM 42.0089 -75.1000 211° Southwest 373 429 19,000  Level New York Center
12:05PM 41.9317 -75.1619 211° Southwest 368 423 19,000 -180 Level New York Center
12:06PM 41.8500 -75.2289 211° Southwest 368 423 18,700 -900 Descending New York Center
12:07PM 41.7578 -75.3033 211° Southwest 356 410 17,300 -1,200 Descending New York Center
12:08PM 41.6761 -75.3700 211° Southwest 350 403 16,300 -1,080 Descending New York Center
12:09PM 41.5964 -75.4339 211° Southwest 350 403 15,200 -1,140 Descending New York Center
12:10PM 41.5256 -75.4897 211° Southwest 350 403 14,100 -1,080 Descending New York Center
12:11PM 41.4458 -75.5533 211° Southwest 345 397 13,100 -1,080 Descending New York Center
12:12PM 41.3686 -75.6142 211° Southwest 345 397 12,000 -1,080 Descending New York Center
12:13PM 41.2783 -75.6822 210° Southwest 345 397 11,000 -1,020 Descending New York Center
12:14PM 41.1886 -75.6867 182° South 336 387 10,000 -600 Descending New York Center
12:15PM 41.0958 -75.6581 167° South 331 381 9,900 -60 Descending New York Center
12:16PM 41.0178 -75.6303 165° South 333 383 9,900  Level New York Center
12:17PM 40.9194 -75.5958 165° South 333 383 10,000  Climbing New York Center
12:18PM 40.8308 -75.5650 165° South 333 383 10,000  Level New York Center
12:19PM 40.7425 -75.5342 165° South 333 383 10,000  Level New York Center
12:20PM 40.6542 -75.5033 165° South 333 383 10,000  Level New York Center
12:21PM 40.5639 -75.4725 165° South 338 389 10,000  Level New York Center
12:22PM 40.4733 -75.4417 165° South 338 389 10,000 -240 Level New York Center
12:23PM 40.4000 -75.4014 157° South 326 375 9,600 -900 Descending New York Center
12:24PM 40.3214 -75.3825 170° South 307 353 8,200 -1,380 Descending New York Center
12:25PM 40.2392 -75.4042 191° South 280 322 6,900 -1,140 Descending New York Center
12:26PM 40.1614 -75.4261 192° South 280 322 6,000 -480 Descending New York Center
12:27PM 40.0894 -75.4486 193° South 280 322 6,000  Level New York Center
12:28PM 40.0158 -75.4708 193° South 280 322 6,000  Level New York Center
12:29PM 39.9522 -75.4961 197° South 275 316 6,000 -300 Level New York Center
12:30PM 39.8942 -75.5356 208° Southwest 236 272 5,500 -960 Descending New York Center
12:31PM 39.8494 -75.5594 202° Southwest 198 228 4,100 -1,260 Descending New York Center
12:32PM 39.8186 -75.5008 124° Southeast 143 165 3,000 -1,140 Descending New York Center